createdAt,value
2019-01-11T00:00:48.810Z,1019.26
2019-01-11T00:01:48.802Z,1019.23
2019-01-11T00:02:48.786Z,1019.19
2019-01-11T00:03:48.779Z,1019.19
2019-01-11T00:04:48.764Z,1019.19
2019-01-11T00:05:48.754Z,1019.21
2019-01-11T00:06:48.743Z,1019.22
2019-01-11T00:07:48.732Z,1019.22
2019-01-11T00:08:48.723Z,1019.17
2019-01-11T00:09:48.711Z,1019.22
2019-01-11T00:10:48.698Z,1019.21
2019-01-11T00:11:48.691Z,1019.24
2019-01-11T00:12:48.681Z,1019.20
2019-01-11T00:13:48.672Z,1019.18
2019-01-11T00:14:48.656Z,1019.16
2019-01-11T00:15:48.648Z,1019.16
2019-01-11T00:16:48.637Z,1019.17
2019-01-11T00:17:48.625Z,1019.15
2019-01-11T00:18:48.622Z,1019.15
2019-01-11T00:19:48.610Z,1019.15
2019-01-11T00:20:48.594Z,1019.11
2019-01-11T00:21:48.586Z,1019.15
2019-01-11T00:22:48.574Z,1019.09
2019-01-11T00:23:48.567Z,1019.12
2019-01-11T00:24:48.557Z,1019.08
2019-01-11T00:25:48.543Z,1019.10
2019-01-11T00:26:48.533Z,1019.06
2019-01-11T00:27:48.521Z,1019.05
2019-01-11T00:28:48.511Z,1019.10
2019-01-11T00:29:48.503Z,1019.03
2019-01-11T00:30:48.491Z,1019.01
2019-01-11T00:31:48.477Z,1019.04
2019-01-11T00:32:48.470Z,1019.02
2019-01-11T00:33:48.460Z,1018.99
2019-01-11T00:34:48.449Z,1019.07
2019-01-11T00:35:48.438Z,1019.09
2019-01-11T00:36:48.430Z,1019.06
2019-01-11T00:37:48.417Z,1019.02
2019-01-11T00:38:48.406Z,1019.03
2019-01-11T00:39:48.395Z,1018.97
2019-01-11T00:40:48.384Z,1018.99
2019-01-11T00:41:48.374Z,1019.03
2019-01-11T00:42:48.364Z,1018.96
2019-01-11T00:43:48.356Z,1018.96
2019-01-11T00:44:48.343Z,1018.98
2019-01-11T00:45:48.332Z,1018.98
2019-01-11T00:46:48.322Z,1018.98
2019-01-11T00:47:48.312Z,1018.96
2019-01-11T00:48:48.314Z,1018.94
2019-01-11T00:49:48.290Z,1018.87
2019-01-11T00:50:48.279Z,1018.93
2019-01-11T00:51:48.270Z,1018.90
2019-01-11T00:52:48.261Z,1018.89
2019-01-11T00:53:48.253Z,1018.87
2019-01-11T00:54:48.243Z,1018.86
2019-01-11T00:55:48.226Z,1018.88
2019-01-11T00:56:48.216Z,1018.83
2019-01-11T00:57:48.213Z,1018.90
2019-01-11T00:58:48.199Z,1018.84
2019-01-11T00:59:48.182Z,1018.86
2019-01-11T01:00:48.175Z,1018.88
2019-01-11T01:01:48.163Z,1018.83
2019-01-11T01:02:48.155Z,1018.89
2019-01-11T01:03:48.149Z,1018.84
2019-01-11T01:04:48.136Z,1018.83
2019-01-11T01:05:48.124Z,1018.86
2019-01-11T01:06:48.111Z,1018.82
2019-01-11T01:07:48.101Z,1018.82
2019-01-11T01:08:48.090Z,1018.77
2019-01-11T01:09:48.078Z,1018.76
2019-01-11T01:10:48.080Z,1018.75
2019-01-11T01:11:48.059Z,1018.75
2019-01-11T01:12:48.051Z,1018.72
2019-01-11T01:13:48.039Z,1018.73
2019-01-11T01:14:48.026Z,1018.73
2019-01-11T01:15:48.019Z,1018.73
2019-01-11T01:16:48.012Z,1018.74
2019-01-11T01:17:47.996Z,1018.73
2019-01-11T01:18:47.986Z,1018.73
2019-01-11T01:19:48.657Z,1018.74
2019-01-11T01:20:47.965Z,1018.74
2019-01-11T01:21:47.954Z,1018.77
2019-01-11T01:22:47.943Z,1018.70
2019-01-11T01:23:47.936Z,1018.71
2019-01-11T01:24:47.923Z,1018.68
2019-01-11T01:25:47.913Z,1018.69
2019-01-11T01:26:47.900Z,1018.66
2019-01-11T01:27:47.891Z,1018.65
2019-01-11T01:28:47.897Z,1018.67
2019-01-11T01:29:47.871Z,1018.65
2019-01-11T01:30:47.859Z,1018.64
2019-01-11T01:31:47.852Z,1018.64
2019-01-11T01:32:47.840Z,1018.64
2019-01-11T01:33:47.840Z,1018.66
2019-01-11T01:34:47.817Z,1018.64
2019-01-11T01:35:47.809Z,1018.65
2019-01-11T01:36:47.796Z,1018.61
2019-01-11T01:37:47.787Z,1018.61
2019-01-11T01:38:47.775Z,1018.62
2019-01-11T01:39:47.768Z,1018.59
2019-01-11T01:40:47.754Z,1018.59
2019-01-11T01:41:47.744Z,1018.57
2019-01-11T01:42:47.732Z,1018.54
2019-01-11T01:43:47.725Z,1018.56
2019-01-11T01:44:47.713Z,1018.55
2019-01-11T01:45:47.708Z,1018.53
2019-01-11T01:46:47.691Z,1018.47
2019-01-11T01:47:47.689Z,1018.56
2019-01-11T01:48:47.671Z,1018.54
2019-01-11T01:49:47.658Z,1018.55
2019-01-11T01:50:47.652Z,1018.55
2019-01-11T01:51:47.639Z,1018.59
2019-01-11T01:52:47.628Z,1018.59
2019-01-11T01:53:47.622Z,1018.56
2019-01-11T01:54:47.607Z,1018.57
2019-01-11T01:55:47.597Z,1018.52
2019-01-11T01:56:47.588Z,1018.56
2019-01-11T01:57:47.576Z,1018.48
2019-01-11T01:58:47.566Z,1018.52
2019-01-11T01:59:47.556Z,1018.51
2019-01-11T02:00:47.544Z,1018.48
2019-01-11T02:01:47.533Z,1018.49
2019-01-11T02:02:47.527Z,1018.47
2019-01-11T02:03:47.518Z,1018.47
2019-01-11T02:04:47.502Z,1018.41
2019-01-11T02:05:47.489Z,1018.42
2019-01-11T02:06:47.481Z,1018.41
2019-01-11T02:07:47.470Z,1018.40
2019-01-11T02:08:47.460Z,1018.42
2019-01-11T02:09:47.451Z,1018.43
2019-01-11T02:10:47.443Z,1018.40
2019-01-11T02:11:47.427Z,1018.41
2019-01-11T02:12:47.421Z,1018.40
2019-01-11T02:13:47.411Z,1018.45
2019-01-11T02:14:47.396Z,1018.41
2019-01-11T02:15:47.386Z,1018.35
2019-01-11T02:16:47.374Z,1018.37
2019-01-11T02:17:47.365Z,1018.36
2019-01-11T02:18:47.356Z,1018.36
2019-01-11T02:19:47.348Z,1018.29
2019-01-11T02:20:47.336Z,1018.34
2019-01-11T02:21:47.325Z,1018.36
2019-01-11T02:22:47.311Z,1018.35
2019-01-11T02:23:47.307Z,1018.31
2019-01-11T02:24:47.291Z,1018.34
2019-01-11T02:25:47.287Z,1018.30
2019-01-11T02:26:47.273Z,1018.38
2019-01-11T02:27:47.261Z,1018.29
2019-01-11T02:28:47.250Z,1018.24
2019-01-11T02:29:47.239Z,1018.25
2019-01-11T02:30:47.228Z,1018.22
2019-01-11T02:31:47.226Z,1018.28
2019-01-11T02:32:52.565Z,1018.25
2019-01-11T02:33:48.198Z,1018.23
2019-01-11T02:34:47.187Z,1018.19
2019-01-11T02:35:47.177Z,1018.22
2019-01-11T02:36:47.168Z,1018.19
2019-01-11T02:37:47.162Z,1018.19
2019-01-11T02:38:47.145Z,1018.14
2019-01-11T02:39:47.143Z,1018.15
2019-01-11T02:40:47.128Z,1018.18
2019-01-11T02:41:47.113Z,1018.10
2019-01-11T02:42:47.103Z,1018.10
2019-01-11T02:43:47.096Z,1018.12
2019-01-11T02:44:47.080Z,1018.10
2019-01-11T02:45:47.076Z,1018.12
2019-01-11T02:46:47.062Z,1018.15
2019-01-11T02:47:47.051Z,1018.11
2019-01-11T02:48:47.041Z,1018.13
2019-01-11T02:49:47.033Z,1018.09
2019-01-11T02:50:47.023Z,1018.13
2019-01-11T02:51:47.019Z,1018.11
2019-01-11T02:52:47.002Z,1018.12
2019-01-11T02:53:46.992Z,1018.09
2019-01-11T02:54:46.982Z,1018.04
2019-01-11T02:55:46.965Z,1018.03
2019-01-11T02:56:46.955Z,1018.00
2019-01-11T02:57:46.961Z,1017.90
2019-01-11T02:58:46.937Z,1017.91
2019-01-11T02:59:46.929Z,1017.88
2019-01-11T03:00:46.915Z,1017.87
2019-01-11T03:01:46.907Z,1017.84
2019-01-11T03:02:46.893Z,1017.83
2019-01-11T03:03:46.893Z,1017.79
2019-01-11T03:04:46.873Z,1017.81
2019-01-11T03:05:46.862Z,1017.73
2019-01-11T03:06:46.852Z,1017.70
2019-01-11T03:07:46.844Z,1017.67
2019-01-11T03:08:46.829Z,1017.66
2019-01-11T03:09:46.831Z,1017.64
2019-01-11T03:10:46.810Z,1017.61
2019-01-11T03:11:46.803Z,1017.62
2019-01-11T03:12:46.787Z,1017.59
2019-01-11T03:13:46.779Z,1017.55
2019-01-11T03:14:46.765Z,1017.42
2019-01-11T03:15:46.766Z,1017.50
2019-01-11T03:16:46.746Z,1017.47
2019-01-11T03:17:46.734Z,1017.47
2019-01-11T03:18:46.723Z,1017.41
2019-01-11T03:19:47.883Z,1017.41
2019-01-11T03:20:46.704Z,1017.35
2019-01-11T03:21:46.693Z,1017.35
2019-01-11T03:22:46.681Z,1017.35
2019-01-11T03:23:46.674Z,1017.34
2019-01-11T03:24:46.668Z,1017.29
2019-01-11T03:25:46.658Z,1017.31
2019-01-11T03:26:46.643Z,1017.27
2019-01-11T03:27:46.630Z,1017.25
2019-01-11T03:28:46.620Z,1017.21
2019-01-11T03:29:46.609Z,1017.19
2019-01-11T03:30:46.602Z,1017.20
2019-01-11T03:31:46.588Z,1017.18
2019-01-11T03:32:46.584Z,1017.16
2019-01-11T03:33:46.571Z,1017.14
2019-01-11T03:34:46.556Z,1017.16
2019-01-11T03:35:46.545Z,1017.17
2019-01-11T03:36:46.535Z,1017.19
2019-01-11T03:37:46.526Z,1017.17
2019-01-11T03:38:46.516Z,1017.12
2019-01-11T03:39:46.507Z,1017.08
2019-01-11T03:40:46.494Z,1017.07
2019-01-11T03:41:46.487Z,1017.08
2019-01-11T03:42:46.471Z,1017.07
2019-01-11T03:43:46.465Z,1017.10
2019-01-11T03:44:46.453Z,1017.06
2019-01-11T03:45:46.453Z,1017.03
2019-01-11T03:46:46.430Z,1017.08
2019-01-11T03:47:46.426Z,1017.05
2019-01-11T03:48:46.412Z,1016.97
2019-01-11T03:49:46.400Z,1017.05
2019-01-11T03:50:46.388Z,1017.01
2019-01-11T03:51:46.394Z,1017.00
2019-01-11T03:52:46.372Z,1016.99
2019-01-11T03:53:46.373Z,1016.98
2019-01-11T03:54:46.347Z,1016.97
2019-01-11T03:55:46.729Z,1016.99
2019-01-11T03:56:46.326Z,1016.99
2019-01-11T03:57:46.321Z,1016.95
2019-01-11T03:58:46.305Z,1016.92
2019-01-11T03:59:46.297Z,1016.91
2019-01-11T04:00:46.288Z,1016.83
2019-01-11T04:01:46.274Z,1016.82
2019-01-11T04:02:46.260Z,1016.87
2019-01-11T04:03:46.275Z,1016.88
2019-01-11T04:04:46.241Z,1016.88
2019-01-11T04:05:46.233Z,1016.86
2019-01-11T04:06:46.221Z,1016.85
2019-01-11T04:07:46.219Z,1016.85
2019-01-11T04:08:46.203Z,1016.83
2019-01-11T04:09:46.190Z,1016.84
2019-01-11T04:10:46.180Z,1016.85
2019-01-11T04:11:46.170Z,1016.79
2019-01-11T04:12:46.165Z,1016.79
2019-01-11T04:13:46.146Z,1016.74
2019-01-11T04:14:46.138Z,1016.81
2019-01-11T04:15:46.130Z,1016.78
2019-01-11T04:16:46.120Z,1016.75
2019-01-11T04:17:46.105Z,1016.76
2019-01-11T04:18:46.095Z,1016.73
2019-01-11T04:19:46.084Z,1016.71
2019-01-11T04:20:46.076Z,1016.72
2019-01-11T04:21:46.066Z,1016.71
2019-01-11T04:22:46.055Z,1016.63
2019-01-11T04:23:46.058Z,1016.56
2019-01-11T04:24:46.036Z,1016.62
2019-01-11T04:25:46.029Z,1016.57
2019-01-11T04:26:46.014Z,1016.60
2019-01-11T04:27:46.007Z,1016.57
2019-01-11T04:28:45.994Z,1016.55
2019-01-11T04:29:45.981Z,1016.50
2019-01-11T04:30:45.970Z,1016.50
2019-01-11T04:31:45.959Z,1016.48
2019-01-11T04:32:45.951Z,1016.51
2019-01-11T04:33:45.944Z,1016.48
2019-01-11T04:34:45.927Z,1016.43
2019-01-11T04:35:45.917Z,1016.40
2019-01-11T04:36:45.905Z,1016.35
2019-01-11T04:37:45.894Z,1016.38
2019-01-11T04:38:45.889Z,1016.32
2019-01-11T04:39:45.877Z,1016.32
2019-01-11T04:40:45.864Z,1016.32
2019-01-11T04:41:45.855Z,1016.31
2019-01-11T04:42:45.845Z,1016.35
2019-01-11T04:43:45.841Z,1016.28
2019-01-11T04:44:45.827Z,1016.33
2019-01-11T04:45:45.814Z,1016.24
2019-01-11T04:46:45.805Z,1016.27
2019-01-11T04:47:45.790Z,1016.28
2019-01-11T04:48:45.786Z,1016.22
2019-01-11T04:49:45.778Z,1016.19
2019-01-11T04:50:45.765Z,1016.18
2019-01-11T04:51:45.748Z,1016.20
2019-01-11T04:52:46.306Z,1016.21
2019-01-11T04:53:45.754Z,1016.23
2019-01-11T04:54:45.724Z,1016.18
2019-01-11T04:55:45.707Z,1016.17
2019-01-11T04:56:45.704Z,1016.15
2019-01-11T04:57:45.688Z,1016.14
2019-01-11T04:58:45.704Z,1016.14
2019-01-11T04:59:45.663Z,1016.12
2019-01-11T05:00:45.655Z,1016.10
2019-01-11T05:01:45.643Z,1016.07
2019-01-11T05:02:45.634Z,1016.08
2019-01-11T05:03:45.633Z,1016.02
2019-01-11T05:04:45.611Z,1016.01
2019-01-11T05:05:45.600Z,1016.01
2019-01-11T05:06:45.589Z,1015.99
2019-01-11T05:07:45.581Z,1015.96
2019-01-11T05:08:45.570Z,1015.95
2019-01-11T05:09:45.560Z,1015.96
2019-01-11T05:10:45.550Z,1015.96
2019-01-11T05:11:45.538Z,1015.95
2019-01-11T05:12:45.531Z,1015.90
2019-01-11T05:13:45.532Z,1015.92
2019-01-11T05:14:45.520Z,1015.86
2019-01-11T05:15:45.497Z,1015.79
2019-01-11T05:16:45.488Z,1015.82
2019-01-11T05:17:45.477Z,1015.83
2019-01-11T05:18:45.473Z,1015.80
2019-01-11T05:19:45.453Z,1015.80
2019-01-11T05:20:45.443Z,1015.80
2019-01-11T05:21:45.433Z,1015.77
2019-01-11T05:22:45.426Z,1015.75
2019-01-11T05:23:45.415Z,1015.77
2019-01-11T05:24:45.401Z,1015.75
2019-01-11T05:25:45.391Z,1015.75
2019-01-11T05:26:45.382Z,1015.76
2019-01-11T05:27:45.381Z,1015.72
2019-01-11T05:28:45.361Z,1015.68
2019-01-11T05:29:45.357Z,1015.67
2019-01-11T05:30:45.337Z,1015.67
2019-01-11T05:31:45.331Z,1015.64
2019-01-11T05:32:45.319Z,1015.63
2019-01-11T05:33:45.315Z,1015.62
2019-01-11T05:34:45.297Z,1015.56
2019-01-11T05:35:45.285Z,1015.58
2019-01-11T05:36:45.278Z,1015.56
2019-01-11T05:37:45.266Z,1015.55
2019-01-11T05:38:45.256Z,1015.58
2019-01-11T05:39:45.252Z,1015.53
2019-01-11T05:40:45.234Z,1015.51
2019-01-11T05:41:45.228Z,1015.49
2019-01-11T05:42:45.214Z,1015.53
2019-01-11T05:43:45.205Z,1015.53
2019-01-11T05:44:45.193Z,1015.49
2019-01-11T05:45:45.182Z,1015.46
2019-01-11T05:46:45.171Z,1015.48
2019-01-11T05:47:45.164Z,1015.42
2019-01-11T05:48:45.151Z,1015.48
2019-01-11T05:49:45.143Z,1015.47
2019-01-11T05:50:45.131Z,1015.43
2019-01-11T05:51:45.118Z,1015.44
2019-01-11T05:52:45.124Z,1015.43
2019-01-11T05:53:45.099Z,1015.40
2019-01-11T05:54:45.093Z,1015.43
2019-01-11T05:55:45.080Z,1015.39
2019-01-11T05:56:45.068Z,1015.36
2019-01-11T05:57:45.058Z,1015.35
2019-01-11T05:58:45.046Z,1015.25
2019-01-11T05:59:45.039Z,1015.33
2019-01-11T06:00:45.025Z,1015.26
2019-01-11T06:01:45.014Z,1015.25
2019-01-11T06:02:45.004Z,1015.31
2019-01-11T06:03:44.994Z,1015.28
2019-01-11T06:04:44.983Z,1015.25
2019-01-11T06:05:44.977Z,1015.27
2019-01-11T06:06:44.962Z,1015.23
2019-01-11T06:07:44.955Z,1015.26
2019-01-11T06:08:44.942Z,1015.28
2019-01-11T06:09:44.932Z,1015.25
2019-01-11T06:10:44.922Z,1015.24
2019-01-11T06:11:44.909Z,1015.24
2019-01-11T06:12:44.899Z,1015.20
2019-01-11T06:13:44.892Z,1015.14
2019-01-11T06:14:44.877Z,1015.11
2019-01-11T06:15:44.868Z,1015.19
2019-01-11T06:16:44.856Z,1015.17
2019-01-11T06:17:44.847Z,1015.16
2019-01-11T06:18:44.835Z,1015.13
2019-01-11T06:19:44.824Z,1015.14
2019-01-11T06:20:44.822Z,1015.11
2019-01-11T06:21:44.812Z,1015.10
2019-01-11T06:22:44.793Z,1015.10
2019-01-11T06:23:44.785Z,1015.11
2019-01-11T06:24:44.774Z,1015.08
2019-01-11T06:25:44.774Z,1015.05
2019-01-11T06:26:44.750Z,1015.02
2019-01-11T06:27:44.740Z,1015.02
2019-01-11T06:28:44.800Z,1015.02
2019-01-11T06:29:44.720Z,1014.96
2019-01-11T06:30:44.708Z,1014.94
2019-01-11T06:31:44.706Z,1014.97
2019-01-11T06:32:44.688Z,1014.88
2019-01-11T06:33:44.680Z,1014.87
2019-01-11T06:34:44.667Z,1014.88
2019-01-11T06:35:44.658Z,1014.88
2019-01-11T06:36:44.645Z,1014.90
2019-01-11T06:37:44.636Z,1014.89
2019-01-11T06:38:44.632Z,1014.96
2019-01-11T06:39:44.615Z,1014.90
2019-01-11T06:40:44.605Z,1014.85
2019-01-11T06:41:44.597Z,1014.87
2019-01-11T06:42:44.584Z,1014.85
2019-01-11T06:43:44.581Z,1014.85
2019-01-11T06:44:44.563Z,1014.85
2019-01-11T06:45:44.551Z,1014.87
2019-01-11T06:46:45.316Z,1014.82
2019-01-11T06:47:45.314Z,1014.85
2019-01-11T06:48:45.314Z,1014.84
2019-01-11T06:49:45.314Z,1014.79
2019-01-11T06:50:44.498Z,1014.79
2019-01-11T06:51:44.489Z,1014.73
2019-01-11T06:52:44.478Z,1014.69
2019-01-11T06:53:44.473Z,1014.79
2019-01-11T06:54:44.465Z,1014.68
2019-01-11T06:55:44.447Z,1014.70
2019-01-11T06:56:44.437Z,1014.68
2019-01-11T06:57:44.425Z,1014.72
2019-01-11T06:58:44.415Z,1014.71
2019-01-11T06:59:44.405Z,1014.72
2019-01-11T07:00:44.397Z,1014.68
2019-01-11T07:01:44.383Z,1014.64
2019-01-11T07:02:44.374Z,1014.67
2019-01-11T07:03:44.365Z,1014.62
2019-01-11T07:04:44.353Z,1014.67
2019-01-11T07:05:44.341Z,1014.67
2019-01-11T07:06:44.331Z,1014.65
2019-01-11T07:07:44.321Z,1014.63
2019-01-11T07:08:44.312Z,1014.64
2019-01-11T07:09:44.301Z,1014.61
2019-01-11T07:10:44.290Z,1014.65
2019-01-11T07:11:44.277Z,1014.67
2019-01-11T07:12:44.270Z,1014.64
2019-01-11T07:13:44.261Z,1014.64
2019-01-11T07:14:44.247Z,1014.59
2019-01-11T07:15:44.241Z,1014.62
2019-01-11T07:16:44.227Z,1014.66
2019-01-11T07:17:44.215Z,1014.63
2019-01-11T07:18:44.205Z,1014.64
2019-01-11T07:19:44.195Z,1014.62
2019-01-11T07:20:44.593Z,1014.61
2019-01-11T07:21:44.173Z,1014.62
2019-01-11T07:22:44.164Z,1014.61
2019-01-11T07:23:44.156Z,1014.55
2019-01-11T07:24:44.145Z,1014.60
2019-01-11T07:25:44.131Z,1014.61
2019-01-11T07:26:44.122Z,1014.62
2019-01-11T07:27:44.113Z,1014.56
2019-01-11T07:28:44.100Z,1014.65
2019-01-11T07:29:44.090Z,1014.65
2019-01-11T07:30:44.078Z,1014.65
2019-01-11T07:31:44.070Z,1014.64
2019-01-11T07:32:44.061Z,1014.64
2019-01-11T07:33:44.053Z,1014.60
2019-01-11T07:34:44.037Z,1014.60
2019-01-11T07:35:44.028Z,1014.58
2019-01-11T07:36:44.019Z,1014.60
2019-01-11T07:37:44.007Z,1014.56
2019-01-11T07:38:43.996Z,1014.67
2019-01-11T07:39:43.984Z,1014.68
2019-01-11T07:40:43.976Z,1014.66
2019-01-11T07:41:43.966Z,1014.67
2019-01-11T07:42:43.955Z,1014.64
2019-01-11T07:43:43.947Z,1014.60
2019-01-11T07:44:43.932Z,1014.59
2019-01-11T07:45:43.923Z,1014.63
2019-01-11T07:46:43.912Z,1014.63
2019-01-11T07:47:43.903Z,1014.60
2019-01-11T07:48:43.890Z,1014.54
2019-01-11T07:49:43.880Z,1014.51
2019-01-11T07:50:49.255Z,1014.56
2019-01-11T07:51:44.858Z,1014.47
2019-01-11T07:52:43.852Z,1014.50
2019-01-11T07:53:43.842Z,1014.50
2019-01-11T07:54:43.829Z,1014.44
2019-01-11T07:55:43.818Z,1014.49
2019-01-11T07:56:43.807Z,1014.46
2019-01-11T07:57:43.798Z,1014.52
2019-01-11T07:58:43.789Z,1014.48
2019-01-11T07:59:43.776Z,1014.57
2019-01-11T08:00:43.768Z,1014.49
2019-01-11T08:01:43.757Z,1014.51
2019-01-11T08:02:43.745Z,1014.51
2019-01-11T08:03:43.737Z,1014.52
2019-01-11T08:04:43.790Z,1014.49
2019-01-11T08:05:43.713Z,1014.49
2019-01-11T08:06:43.707Z,1014.50
2019-01-11T08:07:43.691Z,1014.44
2019-01-11T08:08:43.680Z,1014.47
2019-01-11T08:09:43.671Z,1014.42
2019-01-11T08:10:43.665Z,1014.35
2019-01-11T08:11:43.649Z,1014.35
2019-01-11T08:12:43.643Z,1014.37
2019-01-11T08:13:43.639Z,1014.36
2019-01-11T08:14:43.622Z,1014.37
2019-01-11T08:15:43.606Z,1014.36
2019-01-11T08:16:43.601Z,1014.35
2019-01-11T08:17:43.586Z,1014.31
2019-01-11T08:18:43.581Z,1014.29
2019-01-11T08:19:43.567Z,1014.24
2019-01-11T08:20:43.555Z,1014.19
2019-01-11T08:21:43.544Z,1014.19
2019-01-11T08:22:43.533Z,1014.24
2019-01-11T08:23:43.528Z,1014.21
2019-01-11T08:24:43.519Z,1014.17
2019-01-11T08:25:43.507Z,1014.15
2019-01-11T08:26:43.492Z,1014.10
2019-01-11T08:27:43.485Z,1014.09
2019-01-11T08:28:43.476Z,1014.12
2019-01-11T08:29:43.460Z,1014.13
2019-01-11T08:30:43.459Z,1014.08
2019-01-11T08:31:43.438Z,1014.08
2019-01-11T08:32:43.430Z,1014.09
2019-01-11T08:33:43.423Z,1014.06
2019-01-11T08:34:43.410Z,1014.07
2019-01-11T08:35:43.398Z,1014.06
2019-01-11T08:36:43.386Z,1014.09
2019-01-11T08:37:43.378Z,1014.08
2019-01-11T08:38:43.367Z,1014.09
2019-01-11T08:39:43.355Z,1014.04
2019-01-11T08:40:43.347Z,1014.04
2019-01-11T08:41:43.334Z,1014.05
2019-01-11T08:42:43.331Z,1013.95
2019-01-11T08:43:43.314Z,1014.00
2019-01-11T08:44:43.303Z,1013.98
2019-01-11T08:45:43.295Z,1014.02
2019-01-11T08:46:43.286Z,1014.01
2019-01-11T08:47:43.273Z,1013.99
2019-01-11T08:48:43.261Z,1013.87
2019-01-11T08:49:43.250Z,1013.84
2019-01-11T08:50:43.240Z,1013.85
2019-01-11T08:51:43.228Z,1013.84
2019-01-11T08:52:43.222Z,1013.82
2019-01-11T08:53:43.211Z,1013.88
2019-01-11T08:54:43.197Z,1013.85
2019-01-11T08:55:43.186Z,1013.84
2019-01-11T08:56:43.178Z,1013.84
2019-01-11T08:57:43.166Z,1013.81
2019-01-11T08:58:43.155Z,1013.81
2019-01-11T08:59:43.145Z,1013.80
2019-01-11T09:00:43.135Z,1013.81
2019-01-11T09:01:43.125Z,1013.83
2019-01-11T09:02:43.123Z,1013.81
2019-01-11T09:03:43.107Z,1013.85
2019-01-11T09:04:43.093Z,1013.81
2019-01-11T09:05:43.085Z,1013.80
2019-01-11T09:06:43.071Z,1013.78
2019-01-11T09:07:43.062Z,1013.77
2019-01-11T09:08:43.052Z,1013.72
2019-01-11T09:09:43.044Z,1013.76
2019-01-11T09:10:43.031Z,1013.68
2019-01-11T09:11:43.019Z,1013.71
2019-01-11T09:12:43.010Z,1013.66
2019-01-11T09:13:43.001Z,1013.68
2019-01-11T09:14:42.990Z,1013.71
2019-01-11T09:15:42.979Z,1013.71
2019-01-11T09:16:42.967Z,1013.78
2019-01-11T09:17:42.957Z,1013.78
2019-01-11T09:18:42.947Z,1013.72
2019-01-11T09:19:42.944Z,1013.72
2019-01-11T09:20:42.926Z,1013.68
2019-01-11T09:21:42.914Z,1013.67
2019-01-11T09:22:42.903Z,1013.70
2019-01-11T09:23:42.896Z,1013.70
2019-01-11T09:24:42.882Z,1013.71
2019-01-11T09:25:42.872Z,1013.67
2019-01-11T09:26:42.862Z,1013.63
2019-01-11T09:27:42.852Z,1013.64
2019-01-11T09:28:42.841Z,1013.62
2019-01-11T09:29:42.830Z,1013.61
2019-01-11T09:30:42.820Z,1013.56
2019-01-11T09:31:42.812Z,1013.57
2019-01-11T09:32:42.799Z,1013.52
2019-01-11T09:33:42.793Z,1013.51
2019-01-11T09:34:42.777Z,1013.54
2019-01-11T09:35:42.769Z,1013.57
2019-01-11T09:36:42.756Z,1013.56
2019-01-11T09:37:42.747Z,1013.53
2019-01-11T09:38:42.739Z,1013.51
2019-01-11T09:39:42.725Z,1013.47
2019-01-11T09:40:42.717Z,1013.46
2019-01-11T09:41:42.706Z,1013.48
2019-01-11T09:42:43.952Z,1013.49
2019-01-11T09:43:42.686Z,1013.33
2019-01-11T09:44:42.673Z,1013.36
2019-01-11T09:45:42.661Z,1013.26
2019-01-11T09:46:42.652Z,1013.26
2019-01-11T09:47:42.644Z,1013.22
2019-01-11T09:48:42.635Z,1013.36
2019-01-11T09:49:42.620Z,1013.25
2019-01-11T09:50:42.611Z,1013.28
2019-01-11T09:51:42.599Z,1013.23
2019-01-11T09:52:42.588Z,1013.27
2019-01-11T09:53:42.582Z,1013.29
2019-01-11T09:54:42.567Z,1013.23
2019-01-11T09:55:42.557Z,1013.29
2019-01-11T09:56:42.549Z,1013.22
2019-01-11T09:57:42.536Z,1013.21
2019-01-11T09:58:42.529Z,1013.19
2019-01-11T09:59:42.522Z,1013.25
2019-01-11T10:00:43.147Z,1013.28
2019-01-11T10:01:42.497Z,1013.15
2019-01-11T10:02:42.562Z,1013.13
2019-01-11T10:03:42.483Z,1013.15
2019-01-11T10:04:42.463Z,1013.17
2019-01-11T10:05:42.457Z,1013.11
2019-01-11T10:06:42.442Z,1013.09
2019-01-11T10:07:42.431Z,1013.09
2019-01-11T10:08:42.419Z,1013.05
2019-01-11T10:09:42.410Z,1013.06
2019-01-11T10:10:42.399Z,1013.05
2019-01-11T10:11:42.396Z,1013.07
2019-01-11T10:12:42.377Z,1013.04
2019-01-11T10:13:42.369Z,1013.07
2019-01-11T10:14:42.365Z,1013.09
2019-01-11T10:15:42.345Z,1013.06
2019-01-11T10:16:42.336Z,1013.01
2019-01-11T10:17:42.325Z,1013.01
2019-01-11T10:18:42.317Z,1012.97
2019-01-11T10:19:42.304Z,1012.96
2019-01-11T10:20:42.293Z,1012.91
2019-01-11T10:21:42.284Z,1012.93
2019-01-11T10:22:42.276Z,1012.86
2019-01-11T10:23:42.272Z,1012.86
2019-01-11T10:24:42.250Z,1012.78
2019-01-11T10:25:42.241Z,1012.80
2019-01-11T10:26:42.232Z,1012.78
2019-01-11T10:27:42.219Z,1012.75
2019-01-11T10:28:42.211Z,1012.77
2019-01-11T10:29:42.200Z,1012.67
2019-01-11T10:30:42.188Z,1012.77
2019-01-11T10:31:42.177Z,1012.70
2019-01-11T10:32:42.168Z,1012.62
2019-01-11T10:33:42.162Z,1012.66
2019-01-11T10:34:42.146Z,1012.61
2019-01-11T10:35:42.137Z,1012.56
2019-01-11T10:36:42.128Z,1012.56
2019-01-11T10:37:42.114Z,1012.55
2019-01-11T10:38:42.108Z,1012.49
2019-01-11T10:39:42.094Z,1012.52
2019-01-11T10:40:42.081Z,1012.48
2019-01-11T10:41:42.075Z,1012.50
2019-01-11T10:42:42.061Z,1012.48
2019-01-11T10:43:42.059Z,1012.41
2019-01-11T10:44:42.046Z,1012.39
2019-01-11T10:45:42.031Z,1012.35
2019-01-11T10:46:42.021Z,1012.29
2019-01-11T10:47:42.011Z,1012.35
2019-01-11T10:48:42.001Z,1012.34
2019-01-11T10:49:41.988Z,1012.29
2019-01-11T10:50:41.981Z,1012.28
2019-01-11T10:51:41.968Z,1012.26
2019-01-11T10:52:41.956Z,1012.21
2019-01-11T10:53:41.950Z,1012.23
2019-01-11T10:54:41.936Z,1012.18
2019-01-11T10:55:41.930Z,1012.15
2019-01-11T10:56:41.917Z,1012.16
2019-01-11T10:57:41.905Z,1012.20
2019-01-11T10:58:41.896Z,1012.20
2019-01-11T10:59:41.882Z,1012.20
2019-01-11T11:00:41.873Z,1012.10
2019-01-11T11:01:41.870Z,1012.14
2019-01-11T11:02:41.851Z,1012.12
2019-01-11T11:03:41.846Z,1012.08
2019-01-11T11:04:41.833Z,1012.11
2019-01-11T11:05:41.820Z,1012.13
2019-01-11T11:06:41.809Z,1012.10
2019-01-11T11:07:41.800Z,1012.10
2019-01-11T11:08:41.792Z,1012.11
2019-01-11T11:09:41.779Z,1012.10
2019-01-11T11:10:41.768Z,1012.07
2019-01-11T11:11:41.757Z,1012.03
2019-01-11T11:12:41.746Z,1012.07
2019-01-11T11:13:41.741Z,1012.06
2019-01-11T11:14:41.724Z,1012.02
2019-01-11T11:15:41.715Z,1011.95
2019-01-11T11:16:41.709Z,1011.95
2019-01-11T11:17:41.693Z,1011.93
2019-01-11T11:18:41.682Z,1011.90
2019-01-11T11:19:41.672Z,1011.91
2019-01-11T11:20:41.665Z,1011.90
2019-01-11T11:21:41.657Z,1011.85
2019-01-11T11:22:41.643Z,1011.82
2019-01-11T11:23:41.634Z,1011.88
2019-01-11T11:24:41.620Z,1011.85
2019-01-11T11:25:41.614Z,1011.84
2019-01-11T11:26:41.598Z,1011.88
2019-01-11T11:27:41.589Z,1011.82
2019-01-11T11:28:41.583Z,1011.78
2019-01-11T11:29:41.565Z,1011.74
2019-01-11T11:30:41.555Z,1011.75
2019-01-11T11:31:41.547Z,1011.59
2019-01-11T11:32:41.535Z,1011.64
2019-01-11T11:33:41.529Z,1011.70
2019-01-11T11:34:41.523Z,1011.66
2019-01-11T11:35:41.506Z,1011.64
2019-01-11T11:36:41.493Z,1011.68
2019-01-11T11:37:41.481Z,1011.59
2019-01-11T11:38:41.475Z,1011.56
2019-01-11T11:39:41.461Z,1011.53
2019-01-11T11:40:41.450Z,1011.49
2019-01-11T11:41:41.438Z,1011.47
2019-01-11T11:42:41.429Z,1011.44
2019-01-11T11:43:41.424Z,1011.44
2019-01-11T11:44:41.408Z,1011.45
2019-01-11T11:45:41.418Z,1011.40
2019-01-11T11:46:41.387Z,1011.42
2019-01-11T11:47:41.375Z,1011.41
2019-01-11T11:48:41.367Z,1011.35
2019-01-11T11:49:41.359Z,1011.39
2019-01-11T11:50:41.348Z,1011.36
2019-01-11T11:51:41.656Z,1011.31
2019-01-11T11:52:41.323Z,1011.31
2019-01-11T11:53:41.316Z,1011.27
2019-01-11T11:54:41.302Z,1011.17
2019-01-11T11:55:41.293Z,1011.18
2019-01-11T11:56:41.282Z,1011.14
2019-01-11T11:57:41.272Z,1011.16
2019-01-11T11:58:41.261Z,1011.08
2019-01-11T11:59:41.250Z,1011.08
2019-01-11T12:00:41.240Z,1011.05
2019-01-11T12:01:41.237Z,1011.00
2019-01-11T12:02:41.218Z,1010.99
2019-01-11T12:03:41.210Z,1010.99
2019-01-11T12:04:41.199Z,1010.92
2019-01-11T12:05:41.186Z,1010.94